Time;durP1;ratioP1;P1;durP2;ratioP2;P2;SDS_P1;SDS_P2;PMS_P1;PMS_P2;Temp;Humidity;BMP_temperature;BMP_pressure;BME280_temperature;BME280_humidity;BME280_pressure;Samples;Min_cycle;Max_cycle;Signal;HPM_P1;HPM_P2
2021/08/29 00:00:49;;;;;;;15.00;4.35;;;;;;;15.35;81.14;102385.03;5073059;28;20437;-67
2021/08/29 00:03:14;;;;;;;15.65;3.92;;;;;;;15.34;81.29;102377.94;5070631;28;20099;-66
2021/08/29 00:05:40;;;;;;;13.10;4.20;;;;;;;15.33;81.11;102385.09;5070926;28;20043;-67
2021/08/29 00:08:05;;;;;;;12.45;3.70;;;;;;;15.33;81.15;102377.09;5070785;28;20043;-67
2021/08/29 00:10:32;;;;;;;13.05;4.10;;;;;;;15.36;80.89;102384.09;5072269;28;20100;-66
2021/08/29 00:12:57;;;;;;;12.82;3.88;;;;;;;15.36;80.82;102378.75;5070698;28;20097;-67
2021/08/29 00:15:23;;;;;;;9.70;3.92;;;;;;;15.37;81.05;102381.38;5070961;28;20165;-66
2021/08/29 00:17:48;;;;;;;11.07;4.03;;;;;;;15.37;80.89;102373.34;5070326;28;20396;-66
2021/08/29 00:20:13;;;;;;;12.02;3.60;;;;;;;15.39;80.70;102376.81;5070345;28;20040;-66
2021/08/29 00:22:39;;;;;;;11.15;3.70;;;;;;;15.37;80.33;102376.03;5072423;28;20067;-68
2021/08/29 00:25:04;;;;;;;7.50;3.50;;;;;;;15.38;80.16;102369.75;5070104;28;20024;-66
2021/08/29 00:27:30;;;;;;;13.90;4.30;;;;;;;15.34;80.67;102369.94;5069998;28;20440;-67
2021/08/29 00:29:55;;;;;;;9.38;3.58;;;;;;;15.32;80.42;102372.69;5070317;28;20035;-66
2021/08/29 00:32:20;;;;;;;8.40;3.38;;;;;;;15.31;80.74;102378.94;5072462;28;20075;-67
2021/08/29 00:34:46;;;;;;;9.05;3.67;;;;;;;15.32;80.56;102375.34;5070323;28;20114;-66
2021/08/29 00:37:11;;;;;;;9.93;3.70;;;;;;;15.33;80.67;102374.44;5070164;28;20365;-66
2021/08/29 00:39:36;;;;;;;12.00;4.07;;;;;;;15.32;80.53;102382.47;5069732;28;20054;-67
2021/08/29 00:42:06;;;;;;;11.05;3.70;;;;;;;15.34;79.95;102373.47;5071296;28;20040;-67
2021/08/29 00:44:32;;;;;;;8.02;4.03;;;;;;;15.33;79.88;102390.44;5076310;28;20054;-67
2021/08/29 00:46:57;;;;;;;10.60;4.38;;;;;;;15.36;79.15;102373.44;5090406;28;20107;-67
2021/08/29 00:49:23;;;;;;;12.40;3.97;;;;;;;15.35;78.56;102369.00;5090009;28;20027;-66
2021/08/29 00:51:58;;;;;;;9.20;3.63;;;;;;;15.38;77.97;102376.88;5089889;28;20336;-66
2021/08/29 00:54:28;;;;;;;11.65;3.78;;;;;;;15.38;78.05;102366.22;5086755;28;20020;-64
2021/08/29 00:56:53;;;;;;;7.07;3.40;;;;;;;15.37;77.64;102370.69;5089286;28;20122;-66
2021/08/29 00:59:19;;;;;;;8.70;3.47;;;;;;;15.37;77.60;102375.13;5090010;28;20127;-66
2021/08/29 01:02:02;;;;;;;9.35;3.30;;;;;;;15.39;76.83;102370.63;5089866;28;20043;-67
2021/08/29 01:04:32;;;;;;;9.93;3.17;;;;;;;15.40;76.12;102369.69;5086570;28;20032;-66
2021/08/29 01:07:04;;;;;;;10.02;3.30;;;;;;;15.38;76.46;102369.75;5089530;28;20032;-66
2021/08/29 01:09:31;;;;;;;9.30;3.42;;;;;;;15.38;75.95;102367.09;5089713;28;20051;-66
2021/08/29 01:11:57;;;;;;;8.35;3.65;;;;;;;15.34;76.27;102370.78;5090225;28;20020;-66
2021/08/29 01:14:24;;;;;;;9.38;3.40;;;;;;;15.32;76.48;102364.66;5086064;28;20460;-66
2021/08/29 01:16:53;;;;;;;7.30;3.22;;;;;;;15.26;76.13;102362.25;5089629;28;20098;-67
2021/08/29 01:19:25;;;;;;;8.57;3.67;;;;;;;15.27;75.82;102364.00;5089718;28;20039;-66
2021/08/29 01:21:51;;;;;;;6.60;2.95;;;;;;;15.27;75.83;102364.00;5089636;28;20057;-67
2021/08/29 01:24:19;;;;;;;8.57;3.33;;;;;;;15.30;76.06;102355.00;5089246;28;20059;-66
2021/08/29 01:26:53;;;;;;;6.53;3.30;;;;;;;15.33;75.15;102361.06;5071811;28;20105;-66
2021/08/29 01:29:23;;;;;;;11.65;3.60;;;;;;;15.32;75.03;102354.00;5068832;28;20373;-66
2021/08/29 01:31:49;;;;;;;9.10;3.30;;;;;;;15.34;75.23;102356.59;5069543;28;20024;-67
2021/08/29 01:34:17;;;;;;;8.15;3.47;;;;;;;15.33;75.12;102353.06;5068699;28;20025;-66
2021/08/29 01:36:46;;;;;;;9.25;3.10;;;;;;;15.34;75.08;102354.78;5070855;28;20472;-67
2021/08/29 01:39:12;;;;;;;7.15;3.38;;;;;;;15.33;75.10;102350.41;5068670;28;20360;-66
2021/08/29 01:41:39;;;;;;;6.93;3.22;;;;;;;15.32;74.53;102354.00;5068667;28;20036;-66
2021/08/29 01:44:06;;;;;;;10.90;3.60;;;;;;;15.29;74.88;102362.09;5068577;28;20043;-66
2021/08/29 01:46:33;;;;;;;11.30;3.90;;;;;;;15.23;75.11;102352.56;5070671;28;20037;-66
2021/08/29 01:49:00;;;;;;;8.77;3.72;;;;;;;15.17;75.68;102355.47;5068797;28;20048;-66
2021/08/29 01:51:25;;;;;;;9.00;3.30;;;;;;;15.15;75.64;102359.13;5069912;28;20337;-66
2021/08/29 01:53:50;;;;;;;9.20;3.47;;;;;;;15.08;75.80;102359.38;5068488;28;20090;-67
2021/08/29 01:56:16;;;;;;;8.27;3.45;;;;;;;15.02;76.00;102358.75;5069274;28;20029;-66
2021/08/29 01:58:41;;;;;;;8.55;3.90;;;;;;;14.97;76.31;102364.25;5069841;28;20082;-67
2021/08/29 02:01:11;;;;;;;9.98;3.47;;;;;;;14.90;76.71;102366.31;5068808;28;20076;-69
2021/08/29 02:03:40;;;;;;;9.43;3.55;;;;;;;14.85;77.21;102364.75;5048571;28;20413;-69
2021/08/29 02:06:08;;;;;;;7.95;3.92;;;;;;;14.80;77.06;102359.59;5048346;28;20392;-66
2021/08/29 02:08:38;;;;;;;10.32;3.80;;;;;;;14.77;77.64;102372.16;5074364;28;20037;-67
2021/08/29 02:11:05;;;;;;;9.75;4.20;;;;;;;14.77;77.41;102369.50;5068527;28;20079;-70
2021/08/29 02:13:34;;;;;;;12.85;4.40;;;;;;;14.77;77.78;102369.50;5067884;28;20130;-67
2021/08/29 02:16:11;;;;;;;9.00;3.85;;;;;;;14.80;77.63;102369.41;5068052;28;20032;-66
2021/08/29 02:18:37;;;;;;;11.77;3.70;;;;;;;14.81;77.81;102366.66;5070423;28;20028;-67
2021/08/29 02:21:03;;;;;;;9.02;3.75;;;;;;;14.87;77.86;102370.88;5067682;28;20460;-69
2021/08/29 02:23:29;;;;;;;8.18;3.90;;;;;;;14.91;78.00;102367.16;5067826;28;20041;-66
2021/08/29 02:25:55;;;;;;;7.47;3.90;;;;;;;14.95;77.58;102370.59;5067727;28;20054;-70
2021/08/29 02:28:22;;;;;;;9.32;4.03;;;;;;;14.98;77.53;102374.00;5068884;28;20101;-67
2021/08/29 02:30:49;;;;;;;12.48;3.92;;;;;;;15.01;77.49;102373.00;5085205;28;20081;-66
2021/08/29 02:33:14;;;;;;;12.48;3.50;;;;;;;15.01;77.64;102370.34;5087939;28;20467;-69
2021/08/29 02:35:41;;;;;;;11.40;3.90;;;;;;;15.03;77.67;102368.50;5088190;28;20055;-67
2021/08/29 02:38:07;;;;;;;7.45;3.60;;;;;;;15.04;77.61;102357.75;5086624;28;20143;-66
2021/08/29 02:40:38;;;;;;;8.68;3.72;;;;;;;15.06;77.85;102368.38;5086233;28;20064;-67
2021/08/29 02:43:03;;;;;;;11.60;4.00;;;;;;;15.05;77.65;102367.50;5088412;28;20028;-70
2021/08/29 02:45:29;;;;;;;14.75;4.03;;;;;;;15.06;77.65;102368.38;5088081;28;20467;-68
2021/08/29 02:47:54;;;;;;;7.13;3.65;;;;;;;15.07;78.10;102368.31;5087232;28;20165;-68
2021/08/29 02:50:22;;;;;;;7.90;3.80;;;;;;;15.10;78.31;102372.66;5084616;28;20096;-66
2021/08/29 02:52:47;;;;;;;8.40;3.50;;;;;;;15.11;78.02;102362.88;5087694;28;20039;-69
2021/08/29 02:55:14;;;;;;;10.07;3.58;;;;;;;15.13;78.04;102353.88;5087701;28;20028;-66
2021/08/29 02:57:44;;;;;;;10.13;4.00;;;;;;;15.12;77.77;102359.28;5087621;28;20459;-67
2021/08/29 03:00:11;;;;;;;10.38;3.92;;;;;;;15.11;77.70;102360.19;5071974;28;20056;-69
2021/08/29 03:02:37;;;;;;;10.98;4.32;;;;;;;15.10;77.87;102351.31;5050326;28;20119;-66
2021/08/29 03:05:03;;;;;;;9.75;4.00;;;;;;;15.11;78.17;102358.38;5067436;28;20033;-67
2021/08/29 03:07:28;;;;;;;9.25;4.15;;;;;;;15.11;77.85;102347.72;5068539;28;20028;-68
2021/08/29 03:09:54;;;;;;;10.02;4.35;;;;;;;15.10;78.28;102350.44;5073311;28;20028;-68
2021/08/29 03:12:20;;;;;;;12.25;4.20;;;;;;;15.12;78.00;102345.94;5073621;28;20421;-68
2021/08/29 03:14:46;;;;;;;11.98;4.15;;;;;;;15.14;77.88;102347.59;5071566;28;20037;-68
2021/08/29 03:17:11;;;;;;;10.77;4.07;;;;;;;15.17;77.86;102352.81;5071721;28;20077;-69
2021/08/29 03:19:38;;;;;;;10.77;4.32;;;;;;;15.18;77.68;102343.00;5071769;28;20032;-66
2021/08/29 03:22:04;;;;;;;12.15;4.32;;;;;;;15.22;77.66;102342.81;5082817;28;20099;-66
2021/08/29 03:24:29;;;;;;;14.52;4.35;;;;;;;15.25;77.85;102347.16;5091689;28;20074;-67
2021/08/29 03:26:55;;;;;;;12.23;4.35;;;;;;;15.27;77.87;102345.31;5091261;28;20044;-66
2021/08/29 03:29:20;;;;;;;14.35;4.50;;;;;;;15.28;77.94;102343.50;5091644;28;20028;-66
2021/08/29 03:31:46;;;;;;;10.32;3.72;;;;;;;15.31;77.76;102338.91;5089704;28;20495;-66
2021/08/29 03:34:13;;;;;;;11.15;4.28;;;;;;;15.31;78.31;102346.06;5089506;28;20031;-67
2021/08/29 03:36:43;;;;;;;10.77;3.97;;;;;;;15.31;78.33;102344.25;5091329;28;20123;-67
2021/08/29 03:39:10;;;;;;;9.98;4.00;;;;;;;15.29;78.43;102343.44;5091470;28;20046;-66
2021/08/29 03:41:38;;;;;;;11.48;3.78;;;;;;;15.27;78.41;102339.97;5089275;28;20310;-66
2021/08/29 03:44:04;;;;;;;8.68;3.72;;;;;;;15.30;78.53;102333.63;5089268;28;20028;-68
2021/08/29 03:46:29;;;;;;;13.93;4.47;;;;;;;15.29;78.82;102330.09;5091890;28;20112;-66
2021/08/29 03:48:55;;;;;;;9.85;3.95;;;;;;;15.27;79.26;102334.63;5091385;28;20136;-64
2021/08/29 03:51:20;;;;;;;8.60;3.70;;;;;;;15.27;79.14;102339.97;5090944;28;20115;-67
2021/08/29 03:53:47;;;;;;;12.82;3.70;;;;;;;15.27;79.49;102333.75;5087725;28;20494;-66
2021/08/29 03:56:13;;;;;;;14.07;4.22;;;;;;;15.30;79.47;102333.63;5091112;28;20492;-66
2021/08/29 03:58:42;;;;;;;12.75;3.97;;;;;;;15.31;79.62;102335.38;5091419;28;20115;-66
2021/08/29 04:01:08;;;;;;;10.27;3.40;;;;;;;15.31;79.62;102325.56;5091147;28;20047;-70
2021/08/29 04:03:34;;;;;;;9.85;3.80;;;;;;;15.30;80.07;102323.81;5070631;28;20413;-68
2021/08/29 04:06:00;;;;;;;11.07;3.80;;;;;;;15.31;80.62;102328.22;5080338;28;20103;-66
2021/08/29 04:08:34;;;;;;;14.38;3.67;;;;;;;15.32;80.40;102321.09;5091541;28;20103;-66
2021/08/29 04:11:01;;;;;;;13.10;3.47;;;;;;;15.34;80.03;102321.91;5090720;28;20024;-66
2021/08/29 04:13:27;;;;;;;12.32;3.40;;;;;;;15.36;80.15;102312.91;5088793;28;20050;-67
2021/08/29 04:15:53;;;;;;;11.43;3.42;;;;;;;15.40;79.87;102313.63;5088781;28;20020;-66
2021/08/29 04:18:20;;;;;;;10.55;2.95;;;;;;;15.38;79.72;102308.38;5090355;28;20087;-67
2021/08/29 04:20:46;;;;;;;13.07;3.58;;;;;;;15.40;80.19;102310.97;5090426;28;20022;-67
2021/08/29 04:23:12;;;;;;;9.77;3.55;;;;;;;15.39;80.34;102306.56;5089988;28;20131;-66
2021/08/29 04:25:38;;;;;;;12.02;3.58;;;;;;;15.36;80.19;102312.03;5086878;28;20055;-66
2021/08/29 04:28:04;;;;;;;13.35;3.17;;;;;;;15.33;80.38;102312.16;5090182;28;20126;-67
2021/08/29 04:30:29;;;;;;;14.68;3.65;;;;;;;15.34;80.32;102312.06;5090295;28;20393;-66
2021/08/29 04:32:55;;;;;;;11.00;2.83;;;;;;;15.34;80.12;102309.41;5090484;28;20103;-65
2021/08/29 04:35:20;;;;;;;12.38;3.22;;;;;;;15.37;80.10;102311.09;5088982;28;20157;-70
2021/08/29 04:37:45;;;;;;;6.82;2.97;;;;;;;15.36;80.11;102304.03;5088850;28;20119;-66
2021/08/29 04:40:11;;;;;;;9.55;3.13;;;;;;;15.38;80.54;102299.47;5090516;28;20453;-68
2021/08/29 04:42:36;;;;;;;12.35;3.30;;;;;;;15.38;80.57;102310.16;5090248;28;20069;-67
2021/08/29 04:45:02;;;;;;;10.85;3.05;;;;;;;15.39;80.38;102310.09;5089028;28;20016;-66
2021/08/29 04:47:27;;;;;;;10.20;3.08;;;;;;;15.42;79.58;102319.75;5088294;28;20503;-66
2021/08/29 04:49:52;;;;;;;12.77;3.15;;;;;;;15.42;79.46;102318.91;5089822;28;20117;-66
2021/08/29 04:52:18;;;;;;;11.30;3.10;;;;;;;15.45;78.93;102325.00;5089764;28;20031;-67
2021/08/29 04:54:43;;;;;;;12.70;3.40;;;;;;;15.47;78.90;102323.09;5088553;28;20020;-70
2021/08/29 04:57:08;;;;;;;10.52;2.80;;;;;;;15.48;78.87;102324.00;5089646;28;20452;-67
2021/08/29 04:59:34;;;;;;;13.85;3.10;;;;;;;15.48;78.20;102322.19;5088080;28;20067;-66
2021/08/29 05:01:59;;;;;;;10.20;2.92;;;;;;;15.51;78.17;102324.75;5089548;28;20467;-66
2021/08/29 05:04:24;;;;;;;8.10;2.85;;;;;;;15.55;77.50;102318.34;5089745;28;20103;-67
2021/08/29 05:06:50;;;;;;;10.68;3.03;;;;;;;15.54;77.61;102313.91;5087564;28;20164;-66
2021/08/29 05:09:15;;;;;;;10.57;2.90;;;;;;;15.56;76.75;102312.06;5088052;28;20054;-65
2021/08/29 05:11:40;;;;;;;10.60;2.85;;;;;;;15.57;77.81;102310.25;5089851;28;20046;-66
2021/08/29 05:14:05;;;;;;;6.43;2.70;;;;;;;15.59;77.46;102308.41;5089961;28;20047;-66
2021/08/29 05:16:31;;;;;;;10.13;2.85;;;;;;;15.63;76.82;102311.81;5087451;28;20051;-66
2021/08/29 05:18:56;;;;;;;11.73;3.13;;;;;;;15.65;76.76;102309.91;5087816;28;20110;-66
2021/08/29 05:21:21;;;;;;;11.02;3.13;;;;;;;15.70;77.03;102313.25;5070757;28;20035;-66
2021/08/29 05:23:47;;;;;;;9.48;3.00;;;;;;;15.71;76.69;102310.53;5089489;28;20087;-69
2021/08/29 05:26:12;;;;;;;10.68;2.80;;;;;;;15.71;77.00;102320.34;5087757;28;20039;-67
2021/08/29 05:28:37;;;;;;;12.23;3.22;;;;;;;15.74;77.30;102317.53;5088427;28;20028;-66
2021/08/29 05:31:03;;;;;;;10.75;2.95;;;;;;;15.75;77.29;102316.59;5086482;28;20071;-67
2021/08/29 05:33:28;;;;;;;10.82;2.90;;;;;;;15.77;77.33;102324.53;5089156;28;20031;-66
2021/08/29 05:35:54;;;;;;;11.77;3.15;;;;;;;15.79;77.23;102320.88;5088873;28;20038;-66
2021/08/29 05:38:19;;;;;;;16.00;3.03;;;;;;;15.78;77.21;102315.59;5087108;28;20024;-65
2021/08/29 05:40:44;;;;;;;9.85;3.15;;;;;;;15.81;77.01;102318.16;5068426;28;20021;-64
2021/08/29 05:43:10;;;;;;;11.50;2.85;;;;;;;15.81;76.99;102321.72;5053289;28;20375;-66
2021/08/29 05:45:35;;;;;;;10.10;3.00;;;;;;;15.82;76.04;102320.78;5054040;28;20025;-65
2021/08/29 05:48:00;;;;;;;15.23;4.43;;;;;;;15.86;75.79;102321.53;5061084;28;20028;-65
2021/08/29 05:50:26;;;;;;;12.82;4.40;;;;;;;15.87;75.86;102316.13;5069337;28;20143;-63
2021/08/29 05:52:51;;;;;;;10.75;3.03;;;;;;;15.88;76.08;102320.53;5070241;28;20029;-66
2021/08/29 05:55:16;;;;;;;11.52;2.80;;;;;;;15.91;75.99;102319.53;5078776;28;20555;-64
2021/08/29 05:57:41;;;;;;;13.23;3.28;;;;;;;15.92;75.80;102321.28;5079880;28;20063;-67
2021/08/29 06:00:07;;;;;;;11.15;2.67;;;;;;;15.95;75.48;102326.47;5068984;28;20024;-65
2021/08/29 06:02:33;;;;;;;10.63;2.70;;;;;;;15.95;75.16;102329.13;5068368;28;20024;-66
2021/08/29 06:05:00;;;;;;;12.88;2.60;;;;;;;15.95;75.62;102321.13;5068986;28;20096;-64
2021/08/29 06:07:25;;;;;;;10.18;3.05;;;;;;;16.03;75.68;102316.28;5068931;28;20113;-64
2021/08/29 06:09:50;;;;;;;13.90;2.88;;;;;;;16.07;75.12;102319.69;5067817;28;20055;-65
2021/08/29 06:12:16;;;;;;;9.70;3.10;;;;;;;16.08;74.82;102321.44;5069143;28;20043;-67
2021/08/29 06:14:41;;;;;;;10.05;3.05;;;;;;;16.05;74.76;102314.44;5068606;28;20533;-67
2021/08/29 06:17:06;;;;;;;9.90;3.42;;;;;;;16.08;75.15;102325.94;5068293;28;20020;-66
2021/08/29 06:19:32;;;;;;;12.35;3.08;;;;;;;16.09;74.79;102323.19;5080160;28;20376;-66
2021/08/29 06:21:57;;;;;;;10.95;2.90;;;;;;;16.11;74.32;102326.63;5073335;28;20172;-64
2021/08/29 06:24:23;;;;;;;10.85;2.95;;;;;;;16.10;74.77;102324.94;5064311;28;20045;-65
2021/08/29 06:26:48;;;;;;;9.95;3.33;;;;;;;16.07;74.31;102325.03;5061837;28;20132;-66
2021/08/29 06:29:15;;;;;;;11.32;2.88;;;;;;;16.09;74.63;102315.16;5069392;28;20048;-67
2021/08/29 06:31:41;;;;;;;6.63;2.70;;;;;;;16.15;74.52;102319.34;5068311;28;20329;-65
2021/08/29 06:34:06;;;;;;;9.77;3.05;;;;;;;16.18;74.68;102316.56;5071828;28;20067;-68
2021/08/29 06:36:31;;;;;;;13.38;3.58;;;;;;;16.19;74.62;102324.50;5068656;28;20032;-65
2021/08/29 06:38:58;;;;;;;11.82;2.95;;;;;;;16.26;74.72;102316.22;5068007;28;20498;-65
2021/08/29 06:41:24;;;;;;;10.82;3.10;;;;;;;16.27;75.11;102318.81;5068066;28;20032;-65
2021/08/29 06:43:50;;;;;;;14.60;3.13;;;;;;;16.30;74.42;102312.47;5088455;28;20353;-66
2021/08/29 06:46:15;;;;;;;12.48;3.42;;;;;;;16.28;74.47;102309.88;5088783;28;20101;-69
2021/08/29 06:48:40;;;;;;;13.00;3.17;;;;;;;16.29;74.74;102313.38;5072074;28;20093;-67
2021/08/29 06:51:06;;;;;;;11.45;2.80;;;;;;;16.32;74.86;102316.81;5068727;28;20449;-66
2021/08/29 06:53:31;;;;;;;12.00;2.97;;;;;;;16.42;74.68;102316.38;5067447;28;20029;-65
2021/08/29 06:55:56;;;;;;;7.70;2.75;;;;;;;16.51;74.59;102307.94;5067633;28;20075;-63
2021/08/29 06:58:21;;;;;;;9.85;2.80;;;;;;;16.61;73.26;102313.72;5067957;28;20483;-65
2021/08/29 07:00:47;;;;;;;12.75;2.80;;;;;;;16.60;73.08;102314.66;5067900;28;20085;-67
2021/08/29 07:03:13;;;;;;;10.52;2.63;;;;;;;16.48;73.64;102316.97;5067243;28;20097;-65
2021/08/29 07:05:38;;;;;;;14.95;3.47;;;;;;;16.46;73.62;102315.28;5067850;28;20425;-66
2021/08/29 07:08:04;;;;;;;9.93;2.83;;;;;;;16.44;73.59;102309.16;5067740;28;20027;-66
2021/08/29 07:10:29;;;;;;;8.00;2.80;;;;;;;16.44;74.03;102306.47;5067373;28;20188;-68
2021/08/29 07:12:54;;;;;;;11.07;2.80;;;;;;;16.37;73.41;102301.41;5067642;28;20077;-70
2021/08/29 07:15:20;;;;;;;12.95;3.05;;;;;;;16.38;73.65;102310.28;5068145;28;20719;-69
2021/08/29 07:17:46;;;;;;;14.70;3.00;;;;;;;16.44;73.68;102306.47;5067703;28;20032;-63
2021/08/29 07:20:12;;;;;;;10.27;2.78;;;;;;;16.48;73.47;102303.59;5067579;28;20036;-64
2021/08/29 07:22:37;;;;;;;11.07;2.92;;;;;;;16.55;73.78;102301.50;5067197;28;20024;-66
2021/08/29 07:25:02;;;;;;;7.70;2.58;;;;;;;16.67;72.65;102305.41;5067562;28;20048;-66
2021/08/29 07:27:28;;;;;;;13.07;3.97;;;;;;;16.76;72.99;102296.94;5067846;28;20044;-63
2021/08/29 07:29:53;;;;;;;12.82;2.95;;;;;;;16.84;72.33;102305.47;5067908;28;20054;-67
2021/08/29 07:32:18;;;;;;;9.13;2.85;;;;;;;16.89;72.32;102310.59;5067240;28;20460;-66
2021/08/29 07:34:44;;;;;;;13.50;3.08;;;;;;;16.99;72.25;102301.22;5063252;28;20025;-66
2021/08/29 07:37:09;;;;;;;9.00;2.58;;;;;;;17.13;71.66;102313.06;5065717;28;20477;-65
2021/08/29 07:39:34;;;;;;;8.50;2.85;;;;;;;17.14;71.36;102307.63;5066562;28;20036;-66
2021/08/29 07:41:59;;;;;;;14.73;3.03;;;;;;;17.13;71.93;102303.22;5067113;28;20124;-66
2021/08/29 07:44:25;;;;;;;9.63;2.83;;;;;;;17.18;71.96;102301.16;5067392;28;20086;-65
2021/08/29 07:46:50;;;;;;;11.88;2.88;;;;;;;17.18;71.40;102297.63;5067035;28;20044;-66
2021/08/29 07:49:15;;;;;;;13.43;3.05;;;;;;;17.27;71.84;102294.50;5066778;28;20138;-64
2021/08/29 07:51:41;;;;;;;8.82;2.70;;;;;;;17.32;71.68;102296.94;5066948;28;20039;-67
2021/08/29 07:54:06;;;;;;;11.48;2.88;;;;;;;17.24;71.96;102294.66;5068952;28;20024;-65
2021/08/29 07:56:31;;;;;;;11.77;2.47;;;;;;;17.19;71.81;102291.34;5071411;28;20025;-67
2021/08/29 07:58:57;;;;;;;14.25;3.67;;;;;;;17.17;72.10;102295.91;5076104;28;20515;-64
2021/08/29 08:01:22;;;;;;;10.63;2.88;;;;;;;17.18;72.70;102292.28;5076087;28;20103;-65
2021/08/29 08:03:47;;;;;;;8.48;2.85;;;;;;;17.15;72.18;102287.09;5071541;28;20024;-65
2021/08/29 08:06:13;;;;;;;15.57;3.10;;;;;;;17.16;72.35;102289.69;5070979;28;20392;-66
2021/08/29 08:08:38;;;;;;;15.45;2.90;;;;;;;17.15;72.34;102290.63;5071809;28;20069;-66
2021/08/29 08:11:03;;;;;;;10.43;3.10;;;;;;;17.16;72.91;102295.03;5071297;28;20119;-68
2021/08/29 08:13:30;;;;;;;11.07;3.10;;;;;;;17.19;72.48;102296.69;5076634;28;20173;-67
2021/08/29 08:15:56;;;;;;;12.15;3.60;;;;;;;17.18;72.76;102290.47;5070738;28;20016;-65
2021/08/29 08:18:21;;;;;;;10.88;3.05;;;;;;;17.15;72.10;102303.16;5070679;28;21253;-65
2021/08/29 08:20:46;;;;;;;12.45;2.90;;;;;;;17.15;72.51;102304.00;5070931;28;20039;-68
2021/08/29 08:23:12;;;;;;;9.30;3.50;;;;;;;17.10;72.41;102295.34;5071412;28;20471;-67
2021/08/29 08:25:38;;;;;;;12.73;2.90;;;;;;;17.18;72.68;102294.97;5071505;28;20032;-65
2021/08/29 08:28:03;;;;;;;11.55;3.10;;;;;;;17.26;72.42;102299.94;5072819;28;20108;-67
2021/08/29 08:30:29;;;;;;;11.23;2.90;;;;;;;17.29;72.32;102297.09;5072285;28;20040;-63
2021/08/29 08:32:55;;;;;;;13.73;3.15;;;;;;;17.31;72.32;102298.75;5052725;28;20090;-66
2021/08/29 08:35:20;;;;;;;13.93;3.50;;;;;;;17.29;72.66;102297.09;5071210;28;20020;-66
2021/08/29 08:37:45;;;;;;;11.98;2.85;;;;;;;17.42;71.92;102292.00;5071743;28;20036;-64
2021/08/29 08:40:11;;;;;;;9.32;2.83;;;;;;;17.42;71.79;102292.88;5072712;28;20025;-67
2021/08/29 08:42:37;;;;;;;10.88;3.17;;;;;;;17.33;71.52;102302.22;5087155;28;20111;-66
2021/08/29 08:45:02;;;;;;;12.00;2.80;;;;;;;17.33;71.71;102304.03;5074399;28;20021;-68
2021/08/29 08:47:28;;;;;;;11.10;3.08;;;;;;;17.32;71.42;102302.31;5070886;28;20088;-65
2021/08/29 08:49:57;;;;;;;13.95;3.30;;;;;;;17.28;70.71;102290.88;5079553;28;20100;-66
2021/08/29 08:52:26;;;;;;;8.85;2.72;;;;;;;17.22;71.40;102298.34;5077968;28;20478;-69
2021/08/29 08:54:53;;;;;;;9.50;2.70;;;;;;;17.24;71.57;102297.34;5071977;28;20035;-65
2021/08/29 08:57:19;;;;;;;13.32;3.40;;;;;;;17.24;71.37;102300.00;5072297;28;20474;-68
2021/08/29 08:59:46;;;;;;;15.35;3.50;;;;;;;17.27;71.73;102302.53;5072370;28;20324;-68
2021/08/29 09:02:13;;;;;;;16.83;3.10;;;;;;;17.33;71.24;102306.72;5071510;28;20111;-68
2021/08/29 09:04:38;;;;;;;14.32;3.50;;;;;;;17.34;71.80;102298.59;5071194;28;20060;-66
2021/08/29 09:07:05;;;;;;;11.85;2.97;;;;;;;17.31;71.55;102301.41;5071994;28;20047;-67
2021/08/29 09:09:32;;;;;;;13.82;2.90;;;;;;;17.42;71.76;102300.03;5071374;28;20136;-66
2021/08/29 09:11:57;;;;;;;14.88;3.78;;;;;;;17.39;71.63;102295.69;5070011;28;20033;-64
2021/08/29 09:14:38;;;;;;;10.40;3.05;;;;;;;17.57;71.23;102288.56;5068072;28;20059;-66
2021/08/29 09:17:03;;;;;;;12.10;3.42;;;;;;;17.68;71.01;102293.34;5050994;28;20139;-68
2021/08/29 09:19:28;;;;;;;10.93;2.90;;;;;;;17.66;71.04;102303.25;5062817;28;20040;-65
2021/08/29 09:21:57;;;;;;;9.50;3.20;;;;;;;17.61;70.56;102303.50;5073142;28;20060;-67
2021/08/29 09:24:28;;;;;;;12.18;3.40;;;;;;;17.64;71.11;102307.84;5070696;28;20072;-67
2021/08/29 09:26:58;;;;;;;;;;;;;;;17.68;70.56;102301.38;5073846;28;20032;-65
2021/08/29 09:29:24;;;;;;;11.65;2.83;;;;;;;17.56;71.45;102297.53;5072238;28;19920;-67
2021/08/29 09:31:51;;;;;;;12.40;3.00;;;;;;;17.52;71.36;102306.66;5071026;28;20131;-66
2021/08/29 09:34:21;;;;;;;13.63;3.22;;;;;;;17.38;72.19;102293.97;5075937;28;20106;-67
2021/08/29 09:36:49;;;;;;;10.73;3.08;;;;;;;17.42;71.68;102298.22;5081376;28;20177;-66
2021/08/29 09:39:21;;;;;;;9.85;3.05;;;;;;;17.45;71.71;102305.22;5071012;28;20424;-66
2021/08/29 09:41:47;;;;;;;15.57;3.40;;;;;;;17.38;71.30;102302.00;5072277;28;20029;-66
2021/08/29 09:44:20;;;;;;;13.68;2.92;;;;;;;17.35;71.54;102297.66;5071158;28;20065;-65
2021/08/29 09:46:55;;;;;;;13.38;4.75;;;;;;;17.41;71.01;102296.47;5077013;28;20039;-65
2021/08/29 09:49:34;;;;;;;17.02;3.78;;;;;;;17.18;70.35;102316.38;5075614;28;20387;-65
2021/08/29 09:52:03;;;;;;;11.82;3.22;;;;;;;17.08;70.57;102302.56;5087887;28;20039;-65
2021/08/29 09:54:35;;;;;;;9.07;2.55;;;;;;;17.03;70.69;102302.81;5073817;28;20132;-63
2021/08/29 09:57:05;;;;;;;10.93;2.80;;;;;;;17.18;70.15;102293.13;5072103;28;20055;-71
2021/08/29 09:59:51;;;;;;;11.60;2.90;;;;;;;17.26;70.04;102292.75;5071237;28;20452;-69
2021/08/29 10:02:23;;;;;;;11.98;3.45;;;;;;;17.34;70.49;102285.22;5077496;28;20121;-67
2021/08/29 10:05:09;;;;;;;10.77;3.20;;;;;;;17.48;70.24;102297.91;5082417;28;20155;-66
2021/08/29 10:07:35;;;;;;;12.07;3.00;;;;;;;17.49;69.54;102290.72;5063074;28;20033;-66
2021/08/29 10:10:20;;;;;;;13.35;3.42;;;;;;;17.35;70.77;102289.63;5063670;28;20044;-67
2021/08/29 10:12:47;;;;;;;11.48;2.92;;;;;;;17.40;71.32;102281.34;5067003;28;20127;-65
2021/08/29 10:15:12;;;;;;;8.45;2.45;;;;;;;17.45;70.52;102281.97;5065871;28;20033;-66
2021/08/29 10:17:40;;;;;;;12.02;2.85;;;;;;;17.43;70.51;102272.28;5071091;28;20037;-65
2021/08/29 10:20:06;;;;;;;13.90;3.20;;;;;;;17.57;70.31;102275.16;5066389;28;20024;-65
2021/08/29 10:22:35;;;;;;;10.70;2.80;;;;;;;17.75;69.58;102267.97;5066177;28;20506;-66
2021/08/29 10:25:01;;;;;;;14.02;3.22;;;;;;;17.79;69.92;102272.22;5074613;28;20172;-68
2021/08/29 10:27:30;;;;;;;15.50;3.35;;;;;;;17.82;69.56;102273.88;5087871;28;20036;-65
2021/08/29 10:29:59;;;;;;;15.18;2.92;;;;;;;17.90;69.26;102266.28;5070085;28;20025;-65
2021/08/29 10:32:33;;;;;;;11.90;3.00;;;;;;;17.97;68.59;102264.19;5083999;28;20046;-66
2021/08/29 10:34:59;;;;;;;15.50;3.13;;;;;;;17.79;68.73;102261.50;5070228;28;20020;-65
2021/08/29 10:37:25;;;;;;;15.32;2.85;;;;;;;17.64;69.29;102262.31;5072066;28;20047;-66
2021/08/29 10:39:50;;;;;;;13.65;3.13;;;;;;;17.48;70.41;102267.56;5090178;28;20028;-66
2021/08/29 10:42:17;;;;;;;13.02;2.90;;;;;;;17.45;70.84;102265.06;5085081;28;20056;-67
2021/08/29 10:44:43;;;;;;;16.00;3.15;;;;;;;17.34;71.55;102273.63;5078329;28;20031;-66
2021/08/29 10:47:09;;;;;;;15.57;3.60;;;;;;;17.22;72.49;102260.88;5080731;28;20112;-66
2021/08/29 10:49:35;;;;;;;15.30;3.13;;;;;;;17.18;72.44;102255.66;5069794;28;20032;-66
2021/08/29 10:52:01;;;;;;;12.10;2.53;;;;;;;17.15;72.19;102269.22;5075974;28;20036;-66
2021/08/29 10:54:26;;;;;;;14.13;3.25;;;;;;;17.15;72.17;102269.22;5089738;28;20093;-63
2021/08/29 10:56:52;;;;;;;14.38;3.15;;;;;;;17.16;72.89;102264.72;5084799;28;20031;-65
2021/08/29 10:59:17;;;;;;;14.68;3.40;;;;;;;17.17;72.79;102261.09;5071777;28;20074;-65
2021/08/29 11:01:44;;;;;;;13.43;2.83;;;;;;;17.15;73.08;102261.19;5069948;28;20421;-67
2021/08/29 11:04:19;;;;;;;18.58;3.17;;;;;;;17.11;73.47;102259.63;5069088;28;20291;-66
2021/08/29 11:06:54;;;;;;;13.98;2.80;;;;;;;17.11;74.62;102261.41;5065493;28;20140;-65
2021/08/29 11:09:32;;;;;;;15.88;3.38;;;;;;;17.00;73.96;102256.59;5074918;28;20070;-67
2021/08/29 11:11:59;;;;;;;13.18;3.10;;;;;;;16.98;74.83;102261.16;5067796;28;20078;-64
2021/08/29 11:14:47;;;;;;;15.50;3.90;;;;;;;16.81;77.36;102265.47;5069889;28;20464;-67
2021/08/29 11:17:18;;;;;;;16.30;3.05;;;;;;;16.76;77.75;102264.84;5060141;28;20077;-65